NZWN/WLG METAR and TAF weather

Enter ICAO airport designator
Station Type Date Time Source
NZWN METAR 2022/01/19 20:30 UTC NOAA

NZWN 192030Z AUTO 20017KT 2400 RA HZ SCT011/// BKN017/// OVC028/// 15/14 Q1008 BECMG 9999 -RA


Station Type Date Time Source
NZWN Decoded METAR 2022/01/19 20:30 UTC NOAA

Wellington Airport, New Zealand (NZWN) 41-20S 174-48E 8M
Jan 19, 2022 - 03:30 PM EST / 2022.01.19 2030 UTC
Wind: from the SSW (200 degrees) at 20 MPH (17 KT):0
Visibility: 1 mile(s):0
Sky conditions: overcast
Weather: rain; haze
Temperature: 59 F (15 C)
Dew Point: 57 F (14 C)
Relative Humidity: 93%
Pressure (altimeter): 29.77 in. Hg (1008 hPa)
ob: NZWN 192030Z AUTO 20017KT 2400 RA HZ SCT011/// BKN017/// OVC028/// 15/14 Q1008 BECMG 9999 -RA
cycle: 20

Station Type Date Time Source
NZWN TAF 2022/01/19 18:09 UTC NOAA

TAF NZWN 191705Z 1918/2018 18015KT 9999 -RA FEW006 BKN012
BECMG 1918/1920 FEW012 BKN025
BECMG 2010/2012 16005KT

Example: see airport list